createdAt,value
2023-05-09T03:03:19.224Z,11.00
2023-05-09T03:05:46.562Z,12.13
2023-05-09T03:08:13.710Z,12.75
2023-05-09T03:10:40.852Z,11.90
2023-05-09T03:13:09.087Z,11.07
2023-05-09T03:15:36.763Z,10.52
2023-05-09T03:18:04.188Z,10.68
2023-05-09T03:20:31.381Z,12.82
2023-05-09T03:22:58.514Z,11.00
2023-05-09T03:25:26.422Z,10.75
2023-05-09T03:27:53.666Z,10.35
2023-05-09T03:30:21.064Z,12.23
2023-05-09T03:32:48.231Z,16.90
2023-05-09T03:35:15.581Z,13.20
2023-05-09T03:37:42.910Z,12.73
2023-05-09T03:40:10.448Z,11.32
2023-05-09T03:42:37.654Z,10.80
2023-05-09T03:45:05.209Z,10.45
2023-05-09T03:47:32.408Z,9.02
2023-05-09T03:49:59.626Z,10.45
2023-05-09T03:52:26.803Z,11.40
2023-05-09T03:54:53.988Z,10.30
2023-05-09T03:57:21.247Z,9.77
2023-05-09T03:59:48.450Z,13.25
2023-05-09T04:02:15.955Z,14.63
2023-05-09T04:04:43.201Z,9.93
2023-05-09T04:07:10.708Z,9.30
2023-05-09T04:09:37.884Z,9.70
2023-05-09T04:12:05.328Z,11.32
2023-05-09T04:14:32.506Z,12.40
2023-05-09T04:16:59.716Z,12.80
2023-05-09T04:19:26.932Z,12.80
2023-05-09T04:21:54.129Z,10.68
2023-05-09T04:24:21.490Z,8.40
2023-05-09T04:26:48.744Z,8.35
2023-05-09T04:29:15.985Z,9.80
2023-05-09T04:31:43.373Z,10.13
2023-05-09T04:34:11.450Z,8.95
2023-05-09T04:36:38.619Z,7.85
2023-05-09T04:39:05.807Z,8.50
2023-05-09T04:41:33.005Z,9.68
2023-05-09T04:44:00.236Z,9.63
2023-05-09T04:46:27.803Z,10.32
2023-05-09T04:48:55.022Z,11.98
2023-05-09T04:51:22.205Z,15.63
2023-05-09T04:53:49.383Z,13.80
2023-05-09T04:56:20.456Z,14.75
2023-05-09T04:58:47.834Z,11.88
2023-05-09T05:01:16.618Z,10.65
2023-05-09T05:03:44.056Z,9.70
2023-05-09T05:06:11.323Z,12.45
2023-05-09T05:08:38.502Z,11.73
2023-05-09T05:11:05.833Z,11.10
2023-05-09T05:13:32.948Z,10.63
2023-05-09T05:16:00.190Z,9.68
2023-05-09T05:18:27.405Z,10.68
2023-05-09T05:20:54.685Z,13.35
2023-05-09T05:23:22.048Z,11.60
2023-05-09T05:25:49.242Z,11.52
2023-05-09T05:28:16.449Z,11.32
2023-05-09T05:30:43.600Z,11.13
2023-05-09T05:33:10.884Z,10.35
2023-05-09T05:35:38.350Z,12.80
2023-05-09T05:38:05.565Z,13.77
2023-05-09T05:40:32.781Z,13.02
2023-05-09T05:42:59.949Z,12.55
2023-05-09T05:45:27.254Z,13.65
2023-05-09T05:47:54.512Z,14.38
2023-05-09T05:50:22.056Z,14.98
2023-05-09T05:52:49.286Z,15.65
2023-05-09T05:55:16.655Z,13.40
2023-05-09T05:57:43.980Z,13.00
2023-05-09T06:00:11.896Z,11.25
2023-05-09T06:02:39.230Z,10.05
2023-05-09T06:05:07.107Z,8.55
2023-05-09T06:07:34.285Z,10.80
2023-05-09T06:10:01.473Z,7.80
2023-05-09T06:12:28.617Z,7.50
2023-05-09T06:14:55.831Z,7.15
2023-05-09T06:17:23.085Z,7.13
2023-05-09T06:19:50.361Z,6.70
2023-05-09T06:22:17.570Z,7.20
2023-05-09T06:24:44.712Z,6.57
2023-05-09T06:27:11.954Z,6.40
2023-05-09T06:29:39.150Z,6.60
2023-05-09T06:32:06.397Z,7.35
2023-05-09T06:34:33.593Z,8.93
2023-05-09T06:37:00.774Z,8.60
2023-05-09T06:39:27.928Z,8.40
2023-05-09T06:41:55.195Z,9.35
2023-05-09T06:44:22.767Z,8.63
2023-05-09T06:46:50.480Z,8.00
2023-05-09T06:49:17.632Z,8.15
2023-05-09T06:51:44.789Z,9.15
2023-05-09T06:54:11.928Z,9.80
2023-05-09T06:56:39.143Z,8.98
2023-05-09T06:59:07.706Z,8.68
2023-05-09T07:01:34.909Z,7.85
2023-05-09T07:04:02.132Z,10.23
2023-05-09T07:06:29.505Z,9.75
2023-05-09T07:08:56.874Z,8.18
2023-05-09T07:11:24.060Z,7.30
2023-05-09T07:13:55.052Z,7.03
2023-05-09T07:16:23.144Z,7.13
2023-05-09T07:18:50.372Z,7.32
2023-05-09T07:21:17.594Z,8.10
2023-05-09T07:23:44.741Z,7.32
2023-05-09T07:26:11.902Z,6.70
2023-05-09T07:28:39.139Z,6.88
2023-05-09T07:31:06.498Z,5.60
2023-05-09T07:33:33.737Z,5.00
2023-05-09T07:36:01.411Z,4.28
2023-05-09T07:38:28.620Z,5.20
2023-05-09T07:40:55.959Z,5.35
2023-05-09T07:43:23.243Z,5.30
2023-05-09T07:45:50.540Z,5.70
2023-05-09T07:48:17.870Z,5.30
2023-05-09T07:50:45.089Z,4.90
2023-05-09T07:53:12.326Z,3.75
2023-05-09T07:55:39.640Z,3.42
2023-05-09T07:58:06.860Z,2.92
2023-05-09T08:00:34.069Z,3.30
2023-05-09T08:03:01.582Z,3.50
2023-05-09T08:05:28.853Z,3.60
2023-05-09T08:07:57.306Z,3.50
2023-05-09T08:10:24.949Z,3.70
2023-05-09T08:12:52.470Z,4.03
2023-05-09T08:15:19.663Z,4.18
2023-05-09T08:17:46.839Z,3.45
2023-05-09T08:20:14.160Z,3.35
2023-05-09T08:22:41.389Z,3.10
2023-05-09T08:25:08.988Z,3.65
2023-05-09T08:27:36.186Z,4.60
2023-05-09T08:30:03.585Z,4.43
2023-05-09T08:32:30.812Z,4.10
2023-05-09T08:34:58.030Z,4.32
2023-05-09T08:37:26.105Z,4.57
2023-05-09T08:39:53.237Z,4.95
2023-05-09T08:42:25.518Z,4.38
2023-05-09T08:44:53.524Z,4.40
2023-05-09T08:47:21.998Z,4.60
2023-05-09T08:49:51.167Z,3.80
2023-05-09T08:52:18.900Z,4.25
2023-05-09T08:54:46.488Z,4.15
2023-05-09T08:57:13.983Z,4.07
2023-05-09T08:59:42.654Z,4.07
2023-05-09T09:02:13.960Z,3.83
2023-05-09T09:04:41.689Z,4.25
2023-05-09T09:07:10.466Z,4.20
2023-05-09T09:09:43.016Z,4.28
2023-05-09T09:12:10.438Z,4.78
2023-05-09T09:14:42.844Z,4.13
2023-05-09T09:17:12.112Z,3.95
2023-05-09T09:19:43.142Z,4.03
2023-05-09T09:22:13.978Z,3.83
2023-05-09T09:24:41.536Z,3.30
2023-05-09T09:27:08.790Z,3.88
2023-05-09T09:29:36.013Z,3.10
2023-05-09T09:32:05.971Z,2.90
2023-05-09T09:34:33.439Z,3.05
2023-05-09T09:37:00.592Z,3.13
2023-05-09T09:39:28.288Z,2.92
2023-05-09T09:41:55.540Z,3.05
2023-05-09T09:44:23.451Z,2.65
2023-05-09T09:46:53.285Z,2.20
2023-05-09T09:49:22.868Z,2.28
2023-05-09T09:51:55.229Z,2.67
2023-05-09T09:54:22.939Z,2.13
2023-05-09T09:56:54.235Z,2.50
2023-05-09T09:59:25.030Z,2.40
2023-05-09T10:01:59.384Z,2.58
2023-05-09T10:04:30.194Z,2.30
2023-05-09T10:07:15.616Z,2.50
2023-05-09T10:09:44.019Z,2.35
2023-05-09T10:12:12.158Z,2.30
2023-05-09T10:14:42.641Z,2.90
2023-05-09T10:17:13.414Z,2.60
2023-05-09T10:19:48.470Z,2.50
2023-05-09T10:22:19.286Z,2.20
2023-05-09T10:25:05.072Z,2.50
2023-05-09T10:27:35.848Z,2.70
2023-05-09T10:30:17.196Z,2.75
2023-05-09T10:32:57.947Z,2.92
2023-05-09T10:35:29.761Z,2.40
2023-05-09T10:37:57.776Z,2.60
2023-05-09T10:40:25.960Z,2.65
2023-05-09T10:42:53.136Z,2.40
2023-05-09T10:45:22.248Z,2.58
2023-05-09T10:47:51.484Z,2.20
2023-05-09T10:50:20.239Z,2.97
2023-05-09T10:53:14.008Z,2.60
2023-05-09T10:55:47.434Z,2.38
2023-05-09T10:58:36.284Z,2.33
2023-05-09T11:01:05.379Z,2.30
2023-05-09T11:03:58.517Z,2.03
2023-05-09T11:06:50.781Z,2.05
2023-05-09T11:09:34.449Z,1.80
2023-05-09T11:12:08.494Z,2.33
2023-05-09T11:14:48.682Z,2.38
2023-05-09T11:17:24.734Z,3.28
2023-05-09T11:19:51.936Z,3.05
2023-05-09T11:22:22.111Z,2.88
2023-05-09T11:25:02.089Z,2.90
2023-05-09T11:27:34.980Z,2.60
2023-05-09T11:30:06.448Z,2.50
2023-05-09T11:32:40.746Z,2.20
2023-05-09T11:35:10.233Z,2.47
2023-05-09T11:38:05.796Z,2.60
2023-05-09T11:40:34.380Z,3.38
2023-05-09T11:43:02.135Z,2.55
2023-05-09T11:45:32.258Z,2.90
2023-05-09T11:48:01.155Z,2.60
2023-05-09T11:50:29.349Z,2.63
2023-05-09T11:52:56.587Z,2.58
2023-05-09T11:55:25.184Z,2.50
2023-05-09T11:57:53.937Z,2.90
2023-05-09T12:00:23.192Z,3.55
2023-05-09T12:02:51.469Z,3.40
2023-05-09T12:05:20.750Z,2.83
2023-05-09T12:07:48.342Z,2.80
2023-05-09T12:10:19.153Z,2.40
2023-05-09T12:12:48.749Z,2.60
2023-05-09T12:15:17.542Z,2.50
2023-05-09T12:17:47.100Z,3.10
2023-05-09T12:20:15.820Z,3.30
2023-05-09T12:22:43.999Z,2.90
2023-05-09T12:25:12.480Z,2.70
2023-05-09T12:27:41.849Z,2.78
2023-05-09T12:30:14.184Z,2.95
2023-05-09T12:32:42.841Z,2.60
2023-05-09T12:35:11.211Z,2.90
2023-05-09T12:37:39.249Z,2.90
2023-05-09T12:40:12.305Z,3.42
2023-05-09T12:42:43.043Z,3.08
2023-05-09T12:45:11.199Z,3.30
2023-05-09T12:47:47.965Z,3.45
2023-05-09T12:50:15.176Z,3.50
2023-05-09T12:52:58.985Z,3.42
2023-05-09T12:55:31.703Z,3.40
2023-05-09T12:58:01.662Z,3.42
2023-05-09T13:00:29.657Z,3.55
2023-05-09T13:02:57.037Z,3.50
2023-05-09T13:05:24.428Z,3.03
2023-05-09T13:07:52.684Z,3.67
2023-05-09T13:10:24.145Z,3.50
2023-05-09T13:12:52.049Z,3.50
2023-05-09T13:15:22.461Z,3.20
2023-05-09T13:17:51.109Z,3.50
2023-05-09T13:20:19.230Z,3.58
2023-05-09T13:22:47.567Z,3.53
2023-05-09T13:25:16.085Z,3.13
2023-05-09T13:27:43.244Z,3.40
2023-05-09T13:30:10.933Z,3.25
2023-05-09T13:32:38.162Z,2.85
2023-05-09T13:35:07.965Z,3.10
2023-05-09T13:37:35.633Z,3.35
2023-05-09T13:40:03.084Z,3.10
2023-05-09T13:42:31.167Z,3.25
2023-05-09T13:44:58.327Z,3.22
2023-05-09T13:47:25.870Z,3.15
2023-05-09T13:49:55.897Z,3.28
2023-05-09T13:52:23.216Z,3.13
2023-05-09T13:54:50.498Z,3.25
2023-05-09T13:57:17.677Z,3.30
2023-05-09T13:59:44.891Z,3.33
2023-05-09T14:02:12.860Z,2.90
2023-05-09T14:04:41.137Z,2.40
2023-05-09T14:07:11.127Z,3.00
2023-05-09T14:09:40.208Z,3.00
2023-05-09T14:12:09.942Z,2.80
2023-05-09T14:14:37.164Z,3.03
2023-05-09T14:17:04.542Z,2.42
2023-05-09T14:19:31.832Z,3.00
2023-05-09T14:21:59.172Z,2.80
2023-05-09T14:24:30.740Z,3.00
2023-05-09T14:26:57.994Z,2.75
2023-05-09T14:29:25.233Z,2.55
2023-05-09T14:31:52.442Z,2.78
2023-05-09T14:34:19.741Z,2.33
2023-05-09T14:36:47.240Z,2.10
2023-05-09T14:39:14.474Z,2.65
2023-05-09T14:41:41.809Z,2.40
2023-05-09T14:44:08.974Z,2.08
2023-05-09T14:46:36.998Z,2.53
2023-05-09T14:49:04.324Z,2.40
2023-05-09T14:51:33.276Z,2.10
2023-05-09T14:54:03.819Z,2.20
2023-05-09T14:56:31.829Z,2.17
2023-05-09T14:58:59.061Z,2.38
2023-05-09T15:01:26.253Z,2.80
2023-05-09T15:03:53.648Z,2.40
2023-05-09T15:06:21.019Z,2.20
2023-05-09T15:08:48.208Z,2.50
2023-05-09T15:11:15.478Z,2.30
2023-05-09T15:13:42.653Z,2.55
2023-05-09T15:16:09.991Z,2.88
2023-05-09T15:18:37.317Z,2.20
2023-05-09T15:21:04.832Z,2.70
2023-05-09T15:23:32.035Z,2.55
2023-05-09T15:25:59.308Z,2.70
2023-05-09T15:28:26.462Z,2.38
2023-05-09T15:30:54.000Z,2.10
2023-05-09T15:33:21.342Z,2.25
2023-05-09T15:35:50.116Z,2.20
2023-05-09T15:38:17.405Z,2.20
2023-05-09T15:40:44.542Z,2.38
2023-05-09T15:43:12.929Z,2.30
2023-05-09T15:45:45.264Z,2.33
2023-05-09T15:48:13.756Z,2.08
2023-05-09T15:50:44.801Z,2.30
2023-05-09T15:53:12.082Z,1.95
2023-05-09T15:55:39.343Z,2.05
2023-05-09T15:58:07.477Z,2.05
2023-05-09T16:00:34.659Z,2.47
2023-05-09T16:03:02.027Z,2.35
2023-05-09T16:05:29.328Z,2.00
2023-05-09T16:07:56.520Z,2.08
2023-05-09T16:10:23.768Z,1.92
2023-05-09T16:12:51.187Z,2.15
2023-05-09T16:15:18.443Z,2.58
2023-05-09T16:17:46.093Z,2.38
2023-05-09T16:20:14.169Z,2.50
2023-05-09T16:22:42.013Z,2.30
2023-05-09T16:25:09.585Z,2.20
2023-05-09T16:27:36.923Z,2.00
2023-05-09T16:30:05.233Z,2.30
2023-05-09T16:32:32.722Z,1.88
2023-05-09T16:35:00.026Z,2.53
2023-05-09T16:37:29.126Z,2.40
2023-05-09T16:39:56.463Z,2.20
2023-05-09T16:42:23.646Z,2.08
2023-05-09T16:44:50.940Z,2.75
2023-05-09T16:47:18.187Z,2.58
2023-05-09T16:49:45.441Z,3.25
2023-05-09T16:52:12.770Z,2.67
2023-05-09T16:54:39.932Z,2.72
2023-05-09T16:57:07.164Z,3.20
2023-05-09T16:59:34.391Z,2.88
2023-05-09T17:02:02.190Z,3.25
2023-05-09T17:04:29.520Z,2.67
2023-05-09T17:06:56.739Z,2.70
2023-05-09T17:09:24.451Z,2.60
2023-05-09T17:11:51.923Z,2.63
2023-05-09T17:14:19.172Z,2.50
2023-05-09T17:16:46.509Z,2.90
2023-05-09T17:19:14.033Z,2.78
2023-05-09T17:21:41.722Z,3.47
2023-05-09T17:24:09.728Z,2.90
2023-05-09T17:26:36.938Z,2.33
2023-05-09T17:29:04.425Z,2.30
2023-05-09T17:31:32.156Z,2.40
2023-05-09T17:33:59.423Z,2.65
2023-05-09T17:36:26.695Z,2.60
2023-05-09T17:38:53.986Z,2.42
2023-05-09T17:41:21.979Z,2.45
2023-05-09T17:43:51.071Z,2.70
2023-05-09T17:46:18.312Z,2.40
2023-05-09T17:48:47.721Z,2.47
2023-05-09T17:51:15.043Z,2.50
2023-05-09T17:53:42.497Z,2.60
2023-05-09T17:56:09.780Z,2.95
2023-05-09T17:58:37.151Z,2.50
2023-05-09T18:01:05.406Z,2.63
2023-05-09T18:03:33.000Z,3.05
2023-05-09T18:06:00.467Z,3.03
2023-05-09T18:08:29.453Z,3.83
2023-05-09T18:10:57.783Z,3.80
2023-05-09T18:13:25.202Z,4.00
2023-05-09T18:15:54.948Z,3.75
2023-05-09T18:18:22.987Z,3.92
2023-05-09T18:20:53.473Z,5.00
2023-05-09T18:23:21.782Z,4.93
2023-05-09T18:25:50.043Z,5.03
2023-05-09T18:28:24.395Z,4.05
2023-05-09T18:30:56.597Z,4.70
2023-05-09T18:33:25.672Z,4.30
2023-05-09T18:35:56.248Z,4.85
2023-05-09T18:38:23.764Z,5.03
2023-05-09T18:40:52.303Z,6.78
2023-05-09T18:43:22.425Z,6.60
2023-05-09T18:45:50.011Z,4.70
2023-05-09T18:48:17.316Z,4.20
2023-05-09T18:50:44.778Z,4.65
2023-05-09T18:53:12.429Z,3.00
2023-05-09T18:55:40.190Z,2.53
2023-05-09T18:58:07.403Z,3.40
2023-05-09T19:00:35.659Z,4.85
2023-05-09T19:03:03.593Z,2.20
2023-05-09T19:05:31.021Z,2.65
2023-05-09T19:07:58.262Z,3.00
2023-05-09T19:10:25.534Z,3.47
2023-05-09T19:12:52.964Z,2.50
2023-05-09T19:15:21.112Z,2.60
2023-05-09T19:17:48.435Z,2.28
2023-05-09T19:20:15.967Z,3.20
2023-05-09T19:22:46.300Z,2.70
2023-05-09T19:25:13.572Z,3.30
2023-05-09T19:27:40.796Z,2.97
2023-05-09T19:30:08.485Z,2.75
2023-05-09T19:32:36.123Z,2.70
2023-05-09T19:35:03.841Z,2.40
2023-05-09T19:37:30.999Z,2.20
2023-05-09T19:39:58.315Z,2.90
2023-05-09T19:42:25.656Z,3.40
2023-05-09T19:44:55.884Z,2.60
2023-05-09T19:47:23.125Z,2.95
2023-05-09T19:49:50.324Z,3.10
2023-05-09T19:52:18.554Z,2.95
2023-05-09T19:54:45.845Z,2.60
2023-05-09T19:57:13.278Z,2.50
2023-05-09T19:59:40.467Z,2.33
2023-05-09T20:02:07.760Z,2.25
2023-05-09T20:04:36.237Z,2.30
2023-05-09T20:07:04.560Z,2.50
2023-05-09T20:09:32.975Z,2.40
2023-05-09T20:12:02.694Z,2.20
2023-05-09T20:14:29.919Z,2.10
2023-05-09T20:16:57.545Z,2.03
2023-05-09T20:19:24.944Z,2.00
2023-05-09T20:21:52.236Z,2.20
2023-05-09T20:24:20.101Z,2.40
2023-05-09T20:26:47.360Z,2.20
2023-05-09T20:29:14.550Z,2.20
2023-05-09T20:31:41.905Z,2.40
2023-05-09T20:34:13.232Z,2.42
2023-05-09T20:36:40.742Z,2.25
2023-05-09T20:39:09.708Z,2.30
2023-05-09T20:41:38.545Z,2.35
2023-05-09T20:44:06.045Z,2.60
2023-05-09T20:46:34.261Z,2.88
2023-05-09T20:49:01.491Z,2.60
2023-05-09T20:51:28.857Z,2.33
2023-05-09T20:53:56.027Z,2.40
2023-05-09T20:56:23.544Z,2.30
2023-05-09T20:58:50.806Z,2.40
